Marydel, Delaware
Current Conditions -  °F | °C
As of 6:58 AM on Friday 24 Oct 2014 (Local Time) from KDOV Reporting Station
Overcast Overcast  
Wind Chill: 55°   Ceiling: 3400
Heat Index: 55°   Visibility: 10mi
Dew Point: 45°   Wind: 8mph
Humidity: 71%   Direction: 290°WNW
Pressure: 29.84"   Gusts: NA
Location:  39.11°N, 75.74°W
Report Text: KDOV 241058Z AUTO 29007KT 10SM OVC034 13/07 A2984 RMK AO2 SLP108 T01250074
Loading
Personal Weather Stations






























Interactive Weather Map
Tropical Storm Tracking
New forecast layout! Learn more

10-Day Weather Forecast

Advertisements
Track Severe Weather on mobile